Time;durP1;ratioP1;P1;durP2;ratioP2;P2;SDS_P1;SDS_P2;PMS_P1;PMS_P2;Temp;Humidity;BMP_temperature;BMP_pressure;BME280_temperature;BME280_humidity;BME280_pressure;Samples;Min_cycle;Max_cycle;Signal;HPM_P1;HPM_P2
2022/02/27 00:01:06;;;;;;;3.55;1.77;;;23.40;32.90;;;;;;5109716;28;20412;-71
2022/02/27 00:03:31;;;;;;;2.47;1.50;;;23.30;33.20;;;;;;5110421;28;20731;-70
2022/02/27 00:05:57;;;;;;;2.50;1.70;;;23.30;32.70;;;;;;5113068;28;20441;-70
2022/02/27 00:08:23;;;;;;;2.65;1.70;;;23.30;33.20;;;;;;5112974;28;20881;-70
2022/02/27 00:10:48;;;;;;;3.73;1.70;;;23.20;33.50;;;;;;5112425;28;20715;-70
2022/02/27 00:13:14;;;;;;;3.80;1.80;;;23.20;33.60;;;;;;5113919;28;20383;-70
2022/02/27 00:15:40;;;;;;;2.83;1.70;;;23.20;33.30;;;;;;5113786;28;20461;-70
2022/02/27 00:18:06;;;;;;;3.38;1.55;;;23.10;33.30;;;;;;5112701;28;20569;-70
2022/02/27 00:20:32;;;;;;;2.40;1.50;;;23.10;33.60;;;;;;5112694;28;20830;-70
2022/02/27 00:22:58;;;;;;;2.70;1.55;;;23.10;33.30;;;;;;5113426;28;20474;-70
2022/02/27 00:25:24;;;;;;;2.53;1.50;;;23.10;33.20;;;;;;5112647;28;20566;-70
2022/02/27 00:27:51;;;;;;;2.87;1.50;;;23.20;33.50;;;;;;5112722;28;20410;-70
2022/02/27 00:30:17;;;;;;;2.63;1.50;;;23.00;33.20;;;;;;5112326;28;20380;-70
2022/02/27 00:32:42;;;;;;;2.83;1.67;;;23.00;33.20;;;;;;5111683;28;20449;-71
2022/02/27 00:35:08;;;;;;;2.58;1.52;;;23.00;33.20;;;;;;5113342;28;20380;-70
2022/02/27 00:37:34;;;;;;;7.10;1.63;;;23.00;33.20;;;;;;5113536;28;20463;-70
2022/02/27 00:40:02;;;;;;;2.80;1.50;;;23.00;33.20;;;;;;5113356;28;20437;-70
2022/02/27 00:42:27;;;;;;;2.47;1.77;;;22.90;33.20;;;;;;5112915;28;20431;-70
2022/02/27 00:44:53;;;;;;;2.10;1.50;;;22.90;33.20;;;;;;5109810;28;20416;-70
2022/02/27 00:47:19;;;;;;;2.93;1.80;;;22.90;33.10;;;;;;5112957;28;20791;-70
2022/02/27 00:49:45;;;;;;;2.03;1.33;;;22.90;33.20;;;;;;5113070;28;20392;-70
2022/02/27 00:52:10;;;;;;;2.25;1.30;;;22.90;33.30;;;;;;5113476;28;20866;-70
2022/02/27 00:54:36;;;;;;;2.50;1.35;;;22.90;33.70;;;;;;5113009;28;20409;-70
2022/02/27 00:57:02;;;;;;;2.13;1.40;;;22.90;33.30;;;;;;5113132;28;20388;-70
2022/02/27 00:59:28;;;;;;;3.00;1.40;;;22.90;33.00;;;;;;5114509;28;20470;-70
2022/02/27 01:01:53;;;;;;;2.88;1.52;;;22.80;32.90;;;;;;5113036;28;20416;-70
2022/02/27 01:04:19;;;;;;;2.50;1.60;;;22.80;32.80;;;;;;5113461;28;20389;-70
2022/02/27 01:06:45;;;;;;;2.65;1.60;;;22.80;32.80;;;;;;5114009;28;20420;-71
2022/02/27 01:09:11;;;;;;;2.28;1.30;;;22.80;33.00;;;;;;5113288;28;20388;-70
2022/02/27 01:11:37;;;;;;;1.98;1.30;;;22.80;32.80;;;;;;5113356;28;20391;-71
2022/02/27 01:14:03;;;;;;;2.95;1.65;;;22.80;32.60;;;;;;5114627;28;20377;-70
2022/02/27 01:16:30;;;;;;;2.45;1.48;;;22.80;32.60;;;;;;5112536;28;20388;-70
2022/02/27 01:18:56;;;;;;;2.10;1.38;;;22.80;32.60;;;;;;5114011;28;20388;-70
2022/02/27 01:21:22;;;;;;;1.75;1.10;;;22.80;32.60;;;;;;5113013;28;20404;-70
2022/02/27 01:23:48;;;;;;;2.22;1.40;;;22.80;32.60;;;;;;5114028;28;20391;-70
2022/02/27 01:26:15;;;;;;;2.85;1.40;;;22.80;32.60;;;;;;5114348;28;20415;-70
2022/02/27 01:28:41;;;;;;;1.73;1.20;;;22.70;32.50;;;;;;5114011;27;20419;-71
2022/02/27 01:31:07;;;;;;;2.17;1.27;;;22.70;32.50;;;;;;5113996;28;20388;-70
2022/02/27 01:33:34;;;;;;;2.10;1.27;;;22.70;32.40;;;;;;5112779;28;20376;-70
2022/02/27 01:36:01;;;;;;;2.53;1.42;;;22.70;32.50;;;;;;5112894;28;20393;-70
2022/02/27 01:38:26;;;;;;;2.40;1.50;;;22.70;32.40;;;;;;5112642;28;20381;-70
2022/02/27 01:40:52;;;;;;;1.77;1.30;;;22.70;32.30;;;;;;5112003;28;20396;-71
2022/02/27 01:43:19;;;;;;;2.60;1.30;;;22.70;32.30;;;;;;5112746;28;20443;-70
2022/02/27 01:45:44;;;;;;;2.42;1.23;;;22.70;32.40;;;;;;5112439;28;20436;-70
2022/02/27 01:48:10;;;;;;;2.00;1.20;;;22.70;32.30;;;;;;5112743;28;20428;-70
2022/02/27 01:50:36;;;;;;;2.42;1.40;;;22.60;32.30;;;;;;5113653;28;20845;-70
2022/02/27 01:53:01;;;;;;;1.90;1.40;;;22.70;32.40;;;;;;5112004;28;20463;-70
2022/02/27 01:55:27;;;;;;;2.20;1.40;;;22.60;32.20;;;;;;5112458;28;20420;-70
2022/02/27 01:57:53;;;;;;;2.53;1.30;;;22.60;32.20;;;;;;5112358;28;20389;-70
2022/02/27 02:00:19;;;;;;;2.20;1.30;;;22.60;32.10;;;;;;5113540;28;20483;-70
2022/02/27 02:02:46;;;;;;;2.05;1.30;;;22.60;32.20;;;;;;5111959;28;20475;-71
2022/02/27 02:05:13;;;;;;;1.60;1.13;;;22.60;32.10;;;;;;5112224;28;20389;-70
2022/02/27 02:07:40;;;;;;;1.90;1.20;;;22.60;31.90;;;;;;5113397;28;20449;-70
2022/02/27 02:10:06;;;;;;;2.15;1.35;;;22.60;31.90;;;;;;5112142;28;20444;-70
2022/02/27 02:12:32;;;;;;;1.80;1.20;;;22.60;31.90;;;;;;5113446;28;20396;-70
2022/02/27 02:14:59;;;;;;;2.10;1.30;;;22.60;32.20;;;;;;5111618;28;20490;-70
2022/02/27 02:17:25;;;;;;;2.38;1.50;;;22.60;31.90;;;;;;5113223;28;20388;-71
2022/02/27 02:19:54;;;;;;;2.35;1.33;;;22.60;31.80;;;;;;5113241;28;20372;-70
2022/02/27 02:22:20;;;;;;;1.90;1.20;;;22.60;31.80;;;;;;5113112;28;20396;-70
2022/02/27 02:24:46;;;;;;;2.00;1.30;;;22.50;31.70;;;;;;5111611;28;20399;-71
2022/02/27 02:27:12;;;;;;;1.80;1.13;;;22.60;31.80;;;;;;5110810;28;20406;-71
2022/02/27 02:29:38;;;;;;;1.90;1.30;;;22.60;32.10;;;;;;5111595;28;20396;-70
2022/02/27 02:32:04;;;;;;;1.60;1.10;;;22.50;31.70;;;;;;5113113;28;20471;-70
2022/02/27 02:34:29;;;;;;;2.17;1.20;;;22.50;31.80;;;;;;5112919;28;20427;-70
2022/02/27 02:36:56;;;;;;;2.17;1.40;;;22.50;31.80;;;;;;5111014;28;20499;-70
2022/02/27 02:39:23;;;;;;;2.13;1.33;;;22.50;31.80;;;;;;5111510;28;20479;-70
2022/02/27 02:41:49;;;;;;;2.30;1.40;;;22.40;31.80;;;;;;5112426;28;20431;-71
2022/02/27 02:44:16;;;;;;;2.00;1.25;;;22.40;31.80;;;;;;5112594;28;20380;-70
2022/02/27 02:46:43;;;;;;;1.90;1.30;;;22.50;31.80;;;;;;5111013;28;20561;-70
2022/02/27 02:49:10;;;;;;;1.83;1.20;;;22.50;31.70;;;;;;5112546;28;20393;-70
2022/02/27 02:51:36;;;;;;;2.33;1.38;;;22.50;31.70;;;;;;5111221;28;20385;-70
2022/02/27 02:54:03;;;;;;;2.15;1.30;;;22.40;32.20;;;;;;5111252;28;20380;-70
2022/02/27 02:56:29;;;;;;;1.85;1.30;;;22.40;31.80;;;;;;5111116;28;20392;-70
2022/02/27 02:58:54;;;;;;;2.15;1.27;;;22.60;32.00;;;;;;5110882;28;20388;-71
2022/02/27 03:01:22;;;;;;;1.93;1.27;;;22.40;31.60;;;;;;5112245;28;20416;-70
2022/02/27 03:03:50;;;;;;;1.80;1.20;;;22.40;31.50;;;;;;5112557;28;20441;-71
2022/02/27 03:06:16;;;;;;;2.40;1.42;;;22.40;31.50;;;;;;5112352;28;20446;-70
2022/02/27 03:08:44;;;;;;;1.92;1.20;;;22.40;31.50;;;;;;5112053;28;20384;-71
2022/02/27 03:11:10;;;;;;;2.90;1.40;;;22.40;31.50;;;;;;5111953;28;20465;-70
2022/02/27 03:13:36;;;;;;;1.63;1.15;;;22.40;31.40;;;;;;5112228;28;20896;-71
2022/02/27 03:16:03;;;;;;;1.95;1.38;;;22.40;31.40;;;;;;5112202;28;20392;-70
2022/02/27 03:18:29;;;;;;;2.25;1.23;;;22.40;31.50;;;;;;5112169;28;20383;-70
2022/02/27 03:20:56;;;;;;;2.00;1.20;;;22.40;31.50;;;;;;5111523;28;20416;-70
2022/02/27 03:23:22;;;;;;;2.08;1.30;;;22.40;31.60;;;;;;5110736;28;20420;-70
2022/02/27 03:25:48;;;;;;;2.03;1.20;;;22.40;31.50;;;;;;5110853;28;20400;-70
2022/02/27 03:28:14;;;;;;;2.00;1.33;;;22.40;31.40;;;;;;5112220;28;20434;-70
2022/02/27 03:30:39;;;;;;;1.58;1.20;;;22.40;31.50;;;;;;5112046;28;20381;-70
2022/02/27 03:33:06;;;;;;;1.77;1.30;;;22.40;31.40;;;;;;5111572;28;20381;-71
2022/02/27 03:35:32;;;;;;;2.30;1.50;;;22.30;31.50;;;;;;5110732;28;20435;-70
2022/02/27 03:37:58;;;;;;;1.70;1.25;;;22.30;31.40;;;;;;5111646;28;20416;-70
2022/02/27 03:40:23;;;;;;;1.90;1.40;;;22.30;31.50;;;;;;5110415;28;20754;-70
2022/02/27 03:42:49;;;;;;;1.85;1.35;;;22.30;31.40;;;;;;5111332;28;20399;-70
2022/02/27 03:45:15;;;;;;;1.90;1.20;;;22.30;31.40;;;;;;5110421;28;20491;-70
2022/02/27 03:47:45;;;;;;;1.98;1.20;;;22.30;31.40;;;;;;5111846;28;20384;-70
2022/02/27 03:50:12;;;;;;;1.97;1.13;;;22.30;31.40;;;;;;5111792;28;20392;-70
2022/02/27 03:52:38;;;;;;;2.33;1.30;;;22.30;31.40;;;;;;5111891;28;20428;-70
2022/02/27 03:55:06;;;;;;;2.00;1.43;;;22.30;31.40;;;;;;5110096;28;20931;-70
2022/02/27 03:57:32;;;;;;;1.63;1.20;;;22.30;31.20;;;;;;5110443;28;20525;-70
2022/02/27 03:59:57;;;;;;;1.90;1.27;;;22.30;31.30;;;;;;5110461;28;20679;-70
2022/02/27 04:02:23;;;;;;;2.07;1.30;;;22.30;31.20;;;;;;5111579;28;20486;-70
2022/02/27 04:04:49;;;;;;;1.80;1.20;;;22.30;31.20;;;;;;5111422;28;20415;-70
2022/02/27 04:07:15;;;;;;;2.33;1.23;;;22.30;31.20;;;;;;5110178;28;20773;-70
2022/02/27 04:09:41;;;;;;;2.58;1.50;;;22.30;31.20;;;;;;5111621;28;20433;-70
2022/02/27 04:12:08;;;;;;;2.40;1.30;;;22.30;31.10;;;;;;5111657;28;20396;-70
2022/02/27 04:14:33;;;;;;;1.87;1.20;;;22.20;31.20;;;;;;5111152;28;20425;-70
2022/02/27 04:16:59;;;;;;;2.80;1.25;;;22.30;31.20;;;;;;5109775;28;20381;-71
2022/02/27 04:19:24;;;;;;;1.90;1.23;;;22.30;31.20;;;;;;5111581;28;20385;-70
2022/02/27 04:21:50;;;;;;;2.22;1.20;;;22.30;31.20;;;;;;5110095;28;20483;-71
2022/02/27 04:24:16;;;;;;;2.03;1.20;;;22.20;31.20;;;;;;5111567;28;20489;-70
2022/02/27 04:26:42;;;;;;;2.15;1.40;;;22.20;31.10;;;;;;5111317;28;20381;-70
2022/02/27 04:29:08;;;;;;;1.88;1.15;;;22.20;31.10;;;;;;5110954;28;20438;-70
2022/02/27 04:31:34;;;;;;;2.47;1.30;;;22.20;31.10;;;;;;5110982;28;20796;-70
2022/02/27 04:34:00;;;;;;;2.67;1.50;;;22.10;31.00;;;;;;5111515;28;20376;-70
2022/02/27 04:36:25;;;;;;;1.60;1.20;;;22.10;31.10;;;;;;5110094;28;20388;-70
2022/02/27 04:38:53;;;;;;;2.57;1.43;;;22.10;31.00;;;;;;5111224;28;20369;-70
2022/02/27 04:41:20;;;;;;;2.17;1.35;;;22.10;31.20;;;;;;5111182;28;20498;-70
2022/02/27 04:43:47;;;;;;;2.50;1.25;;;22.20;31.10;;;;;;5110038;28;20452;-70
2022/02/27 04:46:13;;;;;;;2.15;1.20;;;22.10;31.10;;;;;;5109615;28;20504;-71
2022/02/27 04:48:39;;;;;;;2.00;1.30;;;22.10;31.00;;;;;;5111276;28;20467;-70
2022/02/27 04:51:05;;;;;;;2.60;1.40;;;22.10;31.00;;;;;;5111938;28;20400;-70
2022/02/27 04:53:32;;;;;;;2.08;1.20;;;22.10;31.00;;;;;;5113642;28;20389;-70
2022/02/27 04:55:58;;;;;;;2.00;1.10;;;22.00;31.20;;;;;;5113640;28;20809;-70
2022/02/27 04:58:23;;;;;;;2.10;1.30;;;21.20;30.90;;;;;;5113557;28;20885;-70
2022/02/27 05:00:49;;;;;;;1.98;1.27;;;22.10;31.10;;;;;;5114297;28;20400;-71
2022/02/27 05:03:14;;;;;;;2.47;1.30;;;22.10;31.00;;;;;;5113266;28;20396;-70
2022/02/27 05:05:40;;;;;;;2.17;1.20;;;22.10;31.00;;;;;;5114662;28;20376;-70
2022/02/27 05:08:06;;;;;;;1.85;1.13;;;22.10;31.00;;;;;;5114572;28;20388;-70
2022/02/27 05:10:32;;;;;;;2.47;1.20;;;22.00;30.80;;;;;;5114545;28;20738;-70
2022/02/27 05:12:58;;;;;;;2.05;1.30;;;22.00;30.90;;;;;;5114105;28;20387;-70
2022/02/27 05:15:24;;;;;;;2.37;1.40;;;22.00;30.90;;;;;;5114217;28;20412;-70
2022/02/27 05:17:50;;;;;;;2.20;1.30;;;23.70;31.90;;;;;;5113314;28;20381;-70
2022/02/27 05:20:17;;;;;;;1.83;1.10;;;22.10;30.90;;;;;;5114424;28;20707;-70
2022/02/27 05:22:47;;;;;;;3.10;1.40;;;22.10;30.90;;;;;;5114416;28;20475;-70
2022/02/27 05:25:16;;;;;;;2.33;1.20;;;22.10;31.00;;;;;;5112628;28;20384;-70
2022/02/27 05:27:41;;;;;;;2.17;1.30;;;22.10;30.90;;;;;;5113021;28;20384;-70
2022/02/27 05:30:08;;;;;;;1.88;1.23;;;22.10;30.90;;;;;;5112972;28;20393;-70
2022/02/27 05:32:33;;;;;;;2.08;1.30;;;22.10;30.80;;;;;;5112861;28;20384;-70
2022/02/27 05:34:59;;;;;;;2.07;1.20;;;22.00;30.70;;;;;;5113687;28;20384;-70
2022/02/27 05:37:25;;;;;;;2.05;1.10;;;22.00;30.80;;;;;;5112669;28;20388;-70
2022/02/27 05:39:51;;;;;;;2.30;1.30;;;22.00;31.40;;;;;;5114020;28;20389;-70
2022/02/27 05:42:17;;;;;;;2.03;1.40;;;22.00;30.80;;;;;;5113927;28;20444;-70
2022/02/27 05:44:43;;;;;;;2.05;1.30;;;22.00;31.20;;;;;;5112427;28;20388;-70
2022/02/27 05:47:08;;;;;;;1.63;1.08;;;21.90;30.80;;;;;;5113446;28;20397;-70
2022/02/27 05:49:34;;;;;;;2.20;1.50;;;21.90;30.80;;;;;;5113786;28;20376;-70
2022/02/27 05:52:00;;;;;;;1.83;1.20;;;21.90;31.20;;;;;;5112585;28;20893;-70
2022/02/27 05:54:26;;;;;;;2.03;1.30;;;21.90;30.70;;;;;;5112400;28;20395;-70
2022/02/27 05:56:51;;;;;;;1.92;1.25;;;21.90;30.80;;;;;;5112258;28;20397;-70
2022/02/27 05:59:17;;;;;;;2.13;1.10;;;21.90;30.80;;;;;;5112135;28;20381;-71
2022/02/27 06:01:43;;;;;;;2.53;1.30;;;21.90;31.10;;;;;;5112045;28;20508;-71
2022/02/27 06:04:09;;;;;;;2.47;1.38;;;21.90;31.10;;;;;;5112354;28;20471;-71
2022/02/27 06:06:35;;;;;;;2.10;1.30;;;21.90;30.70;;;;;;5113520;28;20738;-70
2022/02/27 06:09:00;;;;;;;2.33;1.40;;;21.90;30.70;;;;;;5111737;28;21104;-71
2022/02/27 06:11:26;;;;;;;2.40;1.63;;;21.90;30.70;;;;;;5113507;28;20949;-70
2022/02/27 06:13:51;;;;;;;2.70;1.40;;;21.90;30.70;;;;;;5113465;28;20383;-70
2022/02/27 06:16:17;;;;;;;1.83;1.30;;;21.90;30.60;;;;;;5111988;28;20392;-70
2022/02/27 06:18:43;;;;;;;2.00;1.25;;;21.90;30.60;;;;;;5111825;28;20380;-70
2022/02/27 06:21:08;;;;;;;2.53;1.30;;;21.90;30.50;;;;;;5112692;28;20472;-71
2022/02/27 06:23:34;;;;;;;1.83;1.13;;;21.90;30.60;;;;;;5111990;28;20381;-71
2022/02/27 06:25:59;;;;;;;1.63;1.03;;;21.90;30.50;;;;;;5113109;28;20423;-71
2022/02/27 06:28:26;;;;;;;1.90;1.10;;;21.90;30.60;;;;;;5113053;28;20377;-71
2022/02/27 06:30:51;;;;;;;2.13;1.30;;;21.90;31.00;;;;;;5111651;28;20400;-70
2022/02/27 06:33:17;;;;;;;2.23;1.30;;;21.90;30.70;;;;;;5111569;28;20437;-71
2022/02/27 06:35:43;;;;;;;2.00;1.40;;;21.90;30.70;;;;;;5113053;28;20854;-71
2022/02/27 06:38:08;;;;;;;2.07;1.40;;;21.90;30.60;;;;;;5112976;28;20389;-71
2022/02/27 06:40:34;;;;;;;1.98;1.15;;;21.80;30.50;;;;;;5112712;28;20398;-71
2022/02/27 06:43:05;;;;;;;2.10;1.30;;;21.80;30.90;;;;;;5112339;28;20437;-71
2022/02/27 06:45:31;;;;;;;1.80;1.20;;;21.80;30.50;;;;;;5112544;28;20419;-71
2022/02/27 06:47:57;;;;;;;2.00;1.30;;;21.80;30.50;;;;;;5112796;28;20384;-71
2022/02/27 06:50:23;;;;;;;2.10;1.20;;;21.80;30.50;;;;;;5112683;28;20380;-71
2022/02/27 06:52:49;;;;;;;2.53;1.60;;;21.80;30.50;;;;;;5111379;28;20389;-71
2022/02/27 06:55:16;;;;;;;2.25;1.50;;;21.80;30.50;;;;;;5112170;28;20734;-71
2022/02/27 06:57:47;;;;;;;2.08;1.42;;;21.80;30.50;;;;;;5112542;28;20872;-71
2022/02/27 07:00:16;;;;;;;2.25;1.48;;;21.70;30.50;;;;;;5112509;28;20387;-71
2022/02/27 07:02:43;;;;;;;2.10;1.23;;;21.80;30.50;;;;;;5112606;28;20388;-70
2022/02/27 07:05:09;;;;;;;2.92;1.50;;;21.80;30.60;;;;;;5111988;28;20411;-71
2022/02/27 07:07:35;;;;;;;2.47;1.50;;;21.80;30.50;;;;;;5111038;28;20393;-71
2022/02/27 07:10:03;;;;;;;1.90;1.20;;;21.80;30.50;;;;;;5112296;28;20392;-70
2022/02/27 07:12:36;;;;;;;3.45;1.33;;;21.80;30.40;;;;;;5110560;28;20423;-70
2022/02/27 07:15:03;;;;;;;2.13;1.50;;;21.80;31.10;;;;;;5110557;28;20380;-69
2022/02/27 07:17:29;;;;;;;3.50;1.70;;;21.90;31.50;;;;;;5111055;28;20385;-69
2022/02/27 07:19:54;;;;;;;2.67;1.77;;;21.80;30.80;;;;;;5112163;28;20441;-69
2022/02/27 07:22:20;;;;;;;3.50;1.80;;;21.80;31.40;;;;;;5112027;28;20501;-69
2022/02/27 07:24:47;;;;;;;3.42;1.58;;;21.70;32.10;;;;;;5112137;28;20846;-68
2022/02/27 07:27:13;;;;;;;3.78;1.60;;;21.70;31.90;;;;;;5110272;28;20491;-68
2022/02/27 07:29:40;;;;;;;3.22;2.00;;;21.70;31.60;;;;;;5110604;28;20424;-68
2022/02/27 07:32:08;;;;;;;3.05;2.00;;;21.70;31.40;;;;;;5111918;28;20380;-68
2022/02/27 07:34:34;;;;;;;3.28;1.85;;;21.60;31.80;;;;;;5111855;28;20388;-69
2022/02/27 07:36:59;;;;;;;3.53;1.97;;;21.70;31.50;;;;;;5111735;28;20388;-69
2022/02/27 07:39:25;;;;;;;3.65;2.08;;;21.60;31.50;;;;;;5111578;28;20380;-69
2022/02/27 07:41:52;;;;;;;2.85;1.85;;;21.60;31.70;;;;;;5111765;28;20947;-68
2022/02/27 07:44:18;;;;;;;4.13;1.90;;;21.60;31.50;;;;;;5111868;28;20857;-68
2022/02/27 07:46:46;;;;;;;2.97;1.90;;;21.60;31.90;;;;;;5111569;28;20408;-68
2022/02/27 07:49:12;;;;;;;4.83;1.90;;;21.60;31.70;;;;;;5111362;28;20461;-67
2022/02/27 07:51:38;;;;;;;5.13;1.70;;;21.60;31.90;;;;;;5110401;28;20409;-69
2022/02/27 07:54:04;;;;;;;3.13;2.00;;;21.60;31.90;;;;;;5111836;28;20884;-69
2022/02/27 07:56:30;;;;;;;4.53;2.08;;;21.70;31.70;;;;;;5111798;28;20384;-69
2022/02/27 07:58:56;;;;;;;2.90;1.77;;;21.70;31.70;;;;;;5110317;28;20384;-68
2022/02/27 08:01:23;;;;;;;4.05;1.67;;;21.60;31.60;;;;;;5109932;28;20420;-69
2022/02/27 08:03:49;;;;;;;5.38;2.00;;;21.70;32.80;;;;;;5110393;28;20467;-68
2022/02/27 08:06:14;;;;;;;6.10;2.20;;;21.70;32.00;;;;;;5111606;28;20479;-69
2022/02/27 08:08:40;;;;;;;4.97;2.08;;;21.70;31.80;;;;;;5110326;28;20452;-69
2022/02/27 08:11:07;;;;;;;5.00;2.30;;;21.70;31.70;;;;;;5111166;28;20392;-69
2022/02/27 08:13:33;;;;;;;2.83;1.77;;;21.80;31.70;;;;;;5111547;28;20776;-69
2022/02/27 08:15:59;;;;;;;4.80;2.00;;;21.80;31.80;;;;;;5111463;28;20392;-69
2022/02/27 08:18:26;;;;;;;5.40;2.53;;;21.80;31.80;;;;;;5111467;28;20410;-69
2022/02/27 08:20:52;;;;;;;9.55;1.95;;;21.80;31.80;;;;;;5111475;28;20812;-69
2022/02/27 08:23:18;;;;;;;7.07;1.80;;;21.80;32.20;;;;;;5110754;28;20385;-69
2022/02/27 08:25:48;;;;;;;4.78;2.08;;;21.80;32.40;;;;;;5113276;28;20441;-68
2022/02/27 08:28:16;;;;;;;7.57;1.85;;;21.90;33.30;;;;;;5115342;28;20384;-69
2022/02/27 08:30:42;;;;;;;7.18;1.90;;;22.00;32.90;;;;;;5115248;28;20857;-72
2022/02/27 08:33:08;;;;;;;6.15;1.95;;;21.90;32.40;;;;;;5114800;28;20433;-69
2022/02/27 08:35:34;;;;;;;4.72;1.90;;;22.00;32.30;;;;;;5115272;27;20380;-68
2022/02/27 08:38:00;;;;;;;4.63;1.92;;;22.00;32.80;;;;;;5115224;28;20388;-69
2022/02/27 08:40:25;;;;;;;11.27;2.50;;;22.00;32.80;;;;;;5113307;28;20777;-68
2022/02/27 08:43:01;;;;;;;4.80;1.88;;;22.00;33.20;;;;;;5114653;28;20393;-69
2022/02/27 08:45:28;;;;;;;6.88;2.00;;;22.00;33.40;;;;;;5114665;28;20882;-69
2022/02/27 08:47:54;;;;;;;8.30;1.90;;;22.00;33.40;;;;;;5115102;28;20448;-69
2022/02/27 08:50:20;;;;;;;4.82;1.52;;;22.10;33.90;;;;;;5114865;28;20373;-69
2022/02/27 08:52:46;;;;;;;8.13;2.47;;;22.20;33.30;;;;;;5114944;28;20388;-69
2022/02/27 08:55:15;;;;;;;7.85;2.78;;;22.20;33.50;;;;;;5114553;28;20704;-69
2022/02/27 08:57:42;;;;;;;5.40;2.35;;;22.40;33.10;;;;;;5114534;28;20384;-69
2022/02/27 09:00:09;;;;;;;8.10;2.35;;;22.50;32.80;;;;;;5114628;28;20376;-68
2022/02/27 09:02:36;;;;;;;4.20;1.67;;;22.70;32.40;;;;;;5114634;28;20495;-69
2022/02/27 09:05:01;;;;;;;4.63;1.80;;;22.70;33.00;;;;;;5114297;28;20889;-69
2022/02/27 09:07:27;;;;;;;4.53;1.97;;;22.70;32.50;;;;;;5114475;28;20470;-69
2022/02/27 09:09:53;;;;;;;6.97;2.08;;;22.70;32.00;;;;;;5114669;28;20410;-69
2022/02/27 09:12:18;;;;;;;5.00;2.30;;;22.80;31.90;;;;;;5114619;28;20385;-69
2022/02/27 09:14:45;;;;;;;3.30;1.70;;;22.80;31.80;;;;;;5114491;28;20384;-69
2022/02/27 09:17:14;;;;;;;4.90;1.88;;;22.80;31.80;;;;;;5114130;28;20385;-69
2022/02/27 09:19:40;;;;;;;4.22;1.80;;;22.80;31.70;;;;;;5114402;28;20376;-69
2022/02/27 09:22:06;;;;;;;4.53;1.80;;;22.80;31.60;;;;;;5114196;28;20423;-69
2022/02/27 09:24:32;;;;;;;6.57;1.93;;;22.90;31.60;;;;;;5113022;28;20753;-69
2022/02/27 09:26:58;;;;;;;4.05;1.73;;;22.90;31.40;;;;;;5114512;28;20388;-69
2022/02/27 09:29:24;;;;;;;3.57;1.70;;;23.00;31.40;;;;;;5113634;28;20881;-68
2022/02/27 09:31:50;;;;;;;2.83;1.80;;;23.00;31.30;;;;;;5114177;28;20426;-68
2022/02/27 09:34:16;;;;;;;5.32;1.67;;;23.10;31.20;;;;;;5114147;28;20788;-69
2022/02/27 09:36:42;;;;;;;3.35;1.50;;;23.20;31.20;;;;;;5113243;28;20449;-69
2022/02/27 09:39:07;;;;;;;3.03;1.60;;;23.20;31.00;;;;;;5113571;28;20373;-68
2022/02/27 09:41:33;;;;;;;4.00;1.60;;;23.30;30.90;;;;;;5113865;28;20789;-69
2022/02/27 09:44:01;;;;;;;2.70;1.60;;;23.40;30.70;;;;;;5112720;28;20738;-69
2022/02/27 09:46:28;;;;;;;4.22;1.75;;;23.50;30.70;;;;;;5112038;28;20420;-69
2022/02/27 09:48:55;;;;;;;3.08;1.40;;;23.60;30.50;;;;;;5113860;27;20910;-69
2022/02/27 09:51:21;;;;;;;3.88;1.40;;;23.70;30.40;;;;;;5112048;28;20392;-69
2022/02/27 09:53:47;;;;;;;6.88;1.75;;;23.80;30.30;;;;;;5113821;28;20392;-68
2022/02/27 09:56:14;;;;;;;5.78;1.70;;;23.90;30.50;;;;;;5112474;28;20881;-69
2022/02/27 09:58:41;;;;;;;5.63;1.75;;;23.90;30.20;;;;;;5112280;28;20388;-69
2022/02/27 10:01:08;;;;;;;4.27;1.73;;;24.00;30.20;;;;;;5113330;28;20513;-68
2022/02/27 10:03:34;;;;;;;3.40;1.53;;;23.90;30.50;;;;;;5105606;28;20837;-69
2022/02/27 10:06:08;;;;;;;3.20;1.70;;;23.90;30.40;;;;;;5094378;28;20801;-70
2022/02/27 10:08:43;;;;;;;4.47;1.48;;;24.10;30.70;;;;;;5091688;28;20395;-67
2022/02/27 10:11:18;;;;;;;4.93;1.77;;;24.20;31.00;;;;;;5091416;28;20465;-69
2022/02/27 10:13:46;;;;;;;5.85;1.40;;;24.40;31.00;;;;;;5091811;28;20382;-69
2022/02/27 10:16:18;;;;;;;3.10;1.40;;;24.40;30.60;;;;;;5091657;28;20473;-70
2022/02/27 10:18:49;;;;;;;3.97;1.40;;;24.50;30.70;;;;;;5091700;28;20387;-69
2022/02/27 10:21:30;;;;;;;7.15;1.42;;;24.50;30.60;;;;;;5101049;28;20400;-68
2022/02/27 10:24:07;;;;;;;4.30;1.55;;;24.40;30.30;;;;;;5111877;28;20400;-69
2022/02/27 10:26:40;;;;;;;4.50;1.50;;;24.40;30.60;;;;;;5109532;28;20874;-68
2022/02/27 10:29:21;;;;;;;3.90;1.48;;;24.30;30.90;;;;;;5112576;28;20470;-69
2022/02/27 10:31:47;;;;;;;3.30;1.40;;;24.40;30.30;;;;;;5112949;28;20392;-69
2022/02/27 10:34:29;;;;;;;4.30;1.40;;;24.40;30.60;;;;;;5112040;28;20380;-69
2022/02/27 10:37:05;;;;;;;2.88;1.20;;;24.50;30.30;;;;;;5111707;28;20403;-69
2022/02/27 10:39:45;;;;;;;4.53;1.13;;;24.50;30.00;;;;;;5112443;28;20381;-69
2022/02/27 10:42:24;;;;;;;3.38;1.40;;;24.50;30.30;;;;;;5110017;27;20411;-69
2022/02/27 10:44:57;;;;;;;4.43;1.30;;;24.50;30.10;;;;;;5108348;28;20393;-68
2022/02/27 10:47:30;;;;;;;3.80;1.20;;;24.50;29.80;;;;;;5111768;28;20388;-68
2022/02/27 10:49:57;;;;;;;3.73;1.20;;;24.50;30.00;;;;;;5111522;28;20455;-68
2022/02/27 10:52:29;;;;;;;4.18;1.20;;;24.60;30.10;;;;;;5111401;28;20460;-70
2022/02/27 10:55:06;;;;;;;4.40;1.30;;;24.70;30.00;;;;;;5107792;28;20957;-68
2022/02/27 10:57:39;;;;;;;3.47;1.40;;;24.70;29.90;;;;;;5106200;28;20421;-69
2022/02/27 11:00:52;;;;;;;3.80;1.10;;;24.90;29.80;;;;;;5101215;28;20400;-69
2022/02/27 11:03:18;;;;;;;2.53;1.20;;;25.00;29.60;;;;;;5116413;27;20414;-68
2022/02/27 11:06:10;;;;;;;3.50;1.20;;;25.10;29.50;;;;;;5108670;28;20383;-69
2022/02/27 11:08:36;;;;;;;2.17;1.27;;;25.30;29.50;;;;;;5110572;28;20397;-68
2022/02/27 11:11:02;;;;;;;2.10;1.10;;;25.30;29.40;;;;;;5110528;28;20870;-68
2022/02/27 11:13:30;;;;;;;2.53;1.30;;;25.40;29.30;;;;;;5110493;28;20376;-69
2022/02/27 11:15:57;;;;;;;3.50;1.60;;;25.40;29.10;;;;;;5108083;28;20440;-71
2022/02/27 11:18:23;;;;;;;4.32;1.25;;;25.30;29.00;;;;;;5105944;27;20754;-72
2022/02/27 11:20:50;;;;;;;3.72;1.48;;;25.40;28.80;;;;;;5104819;27;20408;-70
2022/02/27 11:23:16;;;;;;;3.00;1.27;;;25.50;28.80;;;;;;5109362;28;20755;-70
2022/02/27 11:25:42;;;;;;;3.70;1.53;;;25.60;28.80;;;;;;5110976;28;20395;-69
2022/02/27 11:28:10;;;;;;;4.50;1.50;;;25.60;28.50;;;;;;5109728;28;20479;-69
2022/02/27 11:30:39;;;;;;;3.47;1.60;;;25.60;29.00;;;;;;5111288;28;21046;-69
2022/02/27 11:33:25;;;;;;;3.50;1.50;;;25.70;28.90;;;;;;5110962;28;20389;-69
2022/02/27 11:35:59;;;;;;;4.10;1.38;;;25.70;28.70;;;;;;5110520;28;20518;-69
2022/02/27 11:38:38;;;;;;;3.63;1.30;;;25.60;28.70;;;;;;5110609;28;20889;-71
2022/02/27 11:41:15;;;;;;;3.80;1.50;;;25.70;28.80;;;;;;5111655;28;20404;-68
2022/02/27 11:43:50;;;;;;;3.47;1.40;;;25.70;28.70;;;;;;5111930;28;20858;-68
2022/02/27 11:46:37;;;;;;;5.22;1.40;;;25.80;28.80;;;;;;5111186;28;20412;-69
2022/02/27 11:49:26;;;;;;;2.65;1.70;;;25.80;29.10;;;;;;5111805;28;20423;-69
2022/02/27 11:52:15;;;;;;;3.13;1.50;;;25.90;29.10;;;;;;5111433;28;20408;-69
2022/02/27 11:54:46;;;;;;;4.00;1.63;;;26.00;29.50;;;;;;5111062;28;20391;-69
2022/02/27 11:57:15;;;;;;;3.55;1.83;;;26.00;29.80;;;;;;5112023;28;20880;-70
2022/02/27 12:00:06;;;;;;;2.50;1.60;;;26.10;29.70;;;;;;5113235;28;20380;-70
2022/02/27 12:02:38;;;;;;;2.92;1.40;;;26.10;29.50;;;;;;5114663;28;20457;-71
2022/02/27 12:05:13;;;;;;;4.22;1.60;;;26.00;29.80;;;;;;5114357;28;20396;-69
2022/02/27 12:08:02;;;;;;;4.93;1.70;;;26.10;30.10;;;;;;5114305;28;20491;-69
2022/02/27 12:10:32;;;;;;;2.75;1.42;;;26.00;29.80;;;;;;5100856;28;20392;-69
2022/02/27 12:12:59;;;;;;;5.20;2.00;;;26.10;29.80;;;;;;5115522;28;20862;-72
2022/02/27 12:15:28;;;;;;;3.85;1.70;;;26.90;30.00;;;;;;5115361;28;20389;-70
2022/02/27 12:18:07;;;;;;;4.23;1.70;;;26.10;30.50;;;;;;5117257;28;20389;-70
2022/02/27 12:20:43;;;;;;;4.55;1.58;;;26.10;30.00;;;;;;5113594;28;20927;-69
2022/02/27 12:23:30;;;;;;;6.38;1.88;;;26.20;30.00;;;;;;5115588;28;20399;-70
2022/02/27 12:25:57;;;;;;;3.58;1.67;;;26.20;29.70;;;;;;5101865;28;20400;-70
2022/02/27 12:28:48;;;;;;;10.40;1.60;;;26.20;30.00;;;;;;5115261;28;20391;-73
2022/02/27 12:31:30;;;;;;;4.30;1.52;;;26.30;29.60;;;;;;5114311;28;20384;-71
2022/02/27 12:34:09;;;;;;;3.10;1.50;;;26.30;29.40;;;;;;5114150;28;20388;-70
2022/02/27 12:36:38;;;;;;;6.13;1.55;;;26.30;29.60;;;;;;5111392;28;20372;-69
2022/02/27 12:39:08;;;;;;;3.42;1.48;;;26.10;29.30;;;;;;5114933;28;20429;-70
2022/02/27 12:42:05;;;;;;;4.30;1.48;;;26.00;29.60;;;;;;5114677;28;20872;-68
2022/02/27 12:44:35;;;;;;;2.85;1.55;;;25.80;29.40;;;;;;5097883;28;20873;-68
2022/02/27 12:47:03;;;;;;;4.53;1.57;;;25.80;30.00;;;;;;5115074;28;20900;-69
2022/02/27 12:52:20;;;;;;;4.97;1.88;;;25.70;29.30;;;;;;5115173;28;20909;-69
2022/02/27 12:54:50;;;;;;;8.18;2.17;;;25.50;29.40;;;;;;5114737;28;20746;-70